sensor_id;sensor_type;location;lat;lon;timestamp;temperature;humidity
30534;DHT22;17318;52.390;9.754;2022-07-22T00:00:11;20.80;99.90
30534;DHT22;17318;52.390;9.754;2022-07-22T00:02:37;20.80;99.90
30534;DHT22;17318;52.390;9.754;2022-07-22T00:05:03;20.80;99.90
30534;DHT22;17318;52.390;9.754;2022-07-22T00:07:28;20.90;99.90
30534;DHT22;17318;52.390;9.754;2022-07-22T00:09:54;20.90;99.90
30534;DHT22;17318;52.390;9.754;2022-07-22T00:12:20;20.90;99.90
30534;DHT22;17318;52.390;9.754;2022-07-22T00:14:46;20.90;99.90
30534;DHT22;17318;52.390;9.754;2022-07-22T00:17:12;20.90;99.90
30534;DHT22;17318;52.390;9.754;2022-07-22T00:19:38;20.90;99.90
30534;DHT22;17318;52.390;9.754;2022-07-22T00:22:04;20.90;99.90
30534;DHT22;17318;52.390;9.754;2022-07-22T00:24:29;20.80;99.90
30534;DHT22;17318;52.390;9.754;2022-07-22T00:26:55;20.80;99.90
30534;DHT22;17318;52.390;9.754;2022-07-22T00:29:21;20.90;99.90
30534;DHT22;17318;52.390;9.754;2022-07-22T00:31:47;20.90;99.90
30534;DHT22;17318;52.390;9.754;2022-07-22T00:34:13;20.80;99.90
30534;DHT22;17318;52.390;9.754;2022-07-22T00:36:38;20.80;99.90
30534;DHT22;17318;52.390;9.754;2022-07-22T00:39:04;20.90;99.90
30534;DHT22;17318;52.390;9.754;2022-07-22T00:41:30;20.90;99.90
30534;DHT22;17318;52.390;9.754;2022-07-22T00:44:06;21.00;99.80
30534;DHT22;17318;52.390;9.754;2022-07-22T00:46:33;20.90;99.90
30534;DHT22;17318;52.390;9.754;2022-07-22T00:49:00;20.90;99.90
30534;DHT22;17318;52.390;9.754;2022-07-22T00:51:27;20.70;99.90
30534;DHT22;17318;52.390;9.754;2022-07-22T00:53:54;20.80;99.90
30534;DHT22;17318;52.390;9.754;2022-07-22T00:56:20;20.90;99.90
30534;DHT22;17318;52.390;9.754;2022-07-22T00:58:50;20.90;99.90
30534;DHT22;17318;52.390;9.754;2022-07-22T01:01:17;20.90;99.90
30534;DHT22;17318;52.390;9.754;2022-07-22T01:03:43;20.90;99.90
30534;DHT22;17318;52.390;9.754;2022-07-22T01:06:09;20.90;99.90
30534;DHT22;17318;52.390;9.754;2022-07-22T01:08:34;20.90;99.90
30534;DHT22;17318;52.390;9.754;2022-07-22T01:11:11;20.80;99.90
30534;DHT22;17318;52.390;9.754;2022-07-22T01:13:37;20.70;99.90
30534;DHT22;17318;52.390;9.754;2022-07-22T01:16:07;20.70;99.90
30534;DHT22;17318;52.390;9.754;2022-07-22T01:18:34;20.80;99.90
30534;DHT22;17318;52.390;9.754;2022-07-22T01:21:00;20.80;99.90
30534;DHT22;17318;52.390;9.754;2022-07-22T01:23:26;20.90;99.90
30534;DHT22;17318;52.390;9.754;2022-07-22T01:25:52;20.90;99.90
30534;DHT22;17318;52.390;9.754;2022-07-22T01:28:18;20.90;99.90
30534;DHT22;17318;52.390;9.754;2022-07-22T01:30:44;20.90;99.90
30534;DHT22;17318;52.390;9.754;2022-07-22T01:33:10;20.60;99.90
30534;DHT22;17318;52.390;9.754;2022-07-22T01:35:35;20.70;99.90
30534;DHT22;17318;52.390;9.754;2022-07-22T01:38:01;20.70;99.90
30534;DHT22;17318;52.390;9.754;2022-07-22T01:40:27;20.50;99.90
30534;DHT22;17318;52.390;9.754;2022-07-22T01:42:52;20.40;99.90
30534;DHT22;17318;52.390;9.754;2022-07-22T01:45:18;20.50;99.90
30534;DHT22;17318;52.390;9.754;2022-07-22T01:47:44;20.60;99.90
30534;DHT22;17318;52.390;9.754;2022-07-22T01:50:10;20.70;99.90
30534;DHT22;17318;52.390;9.754;2022-07-22T01:52:37;20.70;99.90
30534;DHT22;17318;52.390;9.754;2022-07-22T01:55:05;20.80;99.90
30534;DHT22;17318;52.390;9.754;2022-07-22T01:57:31;20.80;99.90
30534;DHT22;17318;52.390;9.754;2022-07-22T01:59:57;20.80;99.90
30534;DHT22;17318;52.390;9.754;2022-07-22T02:02:23;20.50;99.90
30534;DHT22;17318;52.390;9.754;2022-07-22T02:04:48;20.50;99.90
30534;DHT22;17318;52.390;9.754;2022-07-22T02:07:16;20.50;99.90
30534;DHT22;17318;52.390;9.754;2022-07-22T02:09:42;20.70;99.90
30534;DHT22;17318;52.390;9.754;2022-07-22T02:12:08;20.50;99.90
30534;DHT22;17318;52.390;9.754;2022-07-22T02:14:34;20.40;99.90
30534;DHT22;17318;52.390;9.754;2022-07-22T02:16:59;20.50;99.90
30534;DHT22;17318;52.390;9.754;2022-07-22T02:19:25;20.40;99.90
30534;DHT22;17318;52.390;9.754;2022-07-22T02:21:51;20.10;99.90
30534;DHT22;17318;52.390;9.754;2022-07-22T02:24:16;20.10;99.90
30534;DHT22;17318;52.390;9.754;2022-07-22T02:26:42;20.00;99.90
30534;DHT22;17318;52.390;9.754;2022-07-22T02:29:08;20.00;99.90
30534;DHT22;17318;52.390;9.754;2022-07-22T02:31:33;20.00;99.90
30534;DHT22;17318;52.390;9.754;2022-07-22T02:33:59;20.00;99.90
30534;DHT22;17318;52.390;9.754;2022-07-22T02:36:25;19.80;99.90
30534;DHT22;17318;52.390;9.754;2022-07-22T02:38:51;19.80;99.90
30534;DHT22;17318;52.390;9.754;2022-07-22T02:41:17;19.70;99.90
30534;DHT22;17318;52.390;9.754;2022-07-22T02:43:42;19.60;99.90
30534;DHT22;17318;52.390;9.754;2022-07-22T02:46:08;19.80;99.90
30534;DHT22;17318;52.390;9.754;2022-07-22T02:48:34;19.70;99.90
30534;DHT22;17318;52.390;9.754;2022-07-22T02:50:59;19.70;99.90
30534;DHT22;17318;52.390;9.754;2022-07-22T02:53:25;19.70;99.90
30534;DHT22;17318;52.390;9.754;2022-07-22T02:55:51;19.60;99.90
30534;DHT22;17318;52.390;9.754;2022-07-22T02:58:16;19.70;99.90
30534;DHT22;17318;52.390;9.754;2022-07-22T03:00:42;19.70;99.90
30534;DHT22;17318;52.390;9.754;2022-07-22T03:03:08;19.70;99.90
30534;DHT22;17318;52.390;9.754;2022-07-22T03:05:34;19.70;99.90
30534;DHT22;17318;52.390;9.754;2022-07-22T03:07:59;19.70;99.90
30534;DHT22;17318;52.390;9.754;2022-07-22T03:10:25;19.60;99.90
30534;DHT22;17318;52.390;9.754;2022-07-22T03:12:51;19.60;99.90
30534;DHT22;17318;52.390;9.754;2022-07-22T03:15:19;19.30;99.90
30534;DHT22;17318;52.390;9.754;2022-07-22T03:17:45;19.30;99.90
30534;DHT22;17318;52.390;9.754;2022-07-22T03:20:11;19.30;99.90
30534;DHT22;17318;52.390;9.754;2022-07-22T03:22:37;19.40;99.90
30534;DHT22;17318;52.390;9.754;2022-07-22T03:25:03;19.30;99.90
30534;DHT22;17318;52.390;9.754;2022-07-22T03:27:29;19.20;99.90
30534;DHT22;17318;52.390;9.754;2022-07-22T03:29:55;19.40;99.90
30534;DHT22;17318;52.390;9.754;2022-07-22T03:32:21;19.30;99.90
30534;DHT22;17318;52.390;9.754;2022-07-22T03:34:46;19.40;99.90
30534;DHT22;17318;52.390;9.754;2022-07-22T03:37:12;19.30;99.90
30534;DHT22;17318;52.390;9.754;2022-07-22T03:39:38;19.20;99.90
30534;DHT22;17318;52.390;9.754;2022-07-22T03:42:04;19.20;99.90
30534;DHT22;17318;52.390;9.754;2022-07-22T03:44:29;19.30;99.90
30534;DHT22;17318;52.390;9.754;2022-07-22T03:46:55;19.20;99.90
30534;DHT22;17318;52.390;9.754;2022-07-22T03:49:21;19.30;99.90
30534;DHT22;17318;52.390;9.754;2022-07-22T03:51:46;19.30;99.90
30534;DHT22;17318;52.390;9.754;2022-07-22T03:54:12;19.30;99.90
30534;DHT22;17318;52.390;9.754;2022-07-22T03:56:38;19.10;99.90
30534;DHT22;17318;52.390;9.754;2022-07-22T03:59:03;19.10;99.90
30534;DHT22;17318;52.390;9.754;2022-07-22T04:01:29;19.10;99.90
30534;DHT22;17318;52.390;9.754;2022-07-22T04:03:58;18.90;99.90
30534;DHT22;17318;52.390;9.754;2022-07-22T04:06:23;18.90;99.90
30534;DHT22;17318;52.390;9.754;2022-07-22T04:08:49;18.80;99.90
30534;DHT22;17318;52.390;9.754;2022-07-22T04:11:15;18.80;99.90
30534;DHT22;17318;52.390;9.754;2022-07-22T04:13:40;19.10;99.90
30534;DHT22;17318;52.390;9.754;2022-07-22T04:16:06;19.10;99.90
30534;DHT22;17318;52.390;9.754;2022-07-22T04:18:32;19.00;99.90
30534;DHT22;17318;52.390;9.754;2022-07-22T04:20:58;19.10;99.90
30534;DHT22;17318;52.390;9.754;2022-07-22T04:23:24;19.10;99.90
30534;DHT22;17318;52.390;9.754;2022-07-22T04:25:50;19.10;99.90
30534;DHT22;17318;52.390;9.754;2022-07-22T04:28:16;19.10;99.90
30534;DHT22;17318;52.390;9.754;2022-07-22T04:30:41;19.10;99.90
30534;DHT22;17318;52.390;9.754;2022-07-22T04:33:07;19.10;99.90
30534;DHT22;17318;52.390;9.754;2022-07-22T04:35:33;18.90;99.90
30534;DHT22;17318;52.390;9.754;2022-07-22T04:37:59;18.90;99.90
30534;DHT22;17318;52.390;9.754;2022-07-22T04:40:25;19.10;99.90
30534;DHT22;17318;52.390;9.754;2022-07-22T04:42:50;19.00;99.90
30534;DHT22;17318;52.390;9.754;2022-07-22T04:45:16;18.90;99.90
30534;DHT22;17318;52.390;9.754;2022-07-22T04:47:42;18.90;99.90
30534;DHT22;17318;52.390;9.754;2022-07-22T04:50:08;19.00;99.90
30534;DHT22;17318;52.390;9.754;2022-07-22T04:52:34;19.00;99.90
30534;DHT22;17318;52.390;9.754;2022-07-22T04:54:59;19.00;99.90
30534;DHT22;17318;52.390;9.754;2022-07-22T04:57:26;18.90;99.90
30534;DHT22;17318;52.390;9.754;2022-07-22T04:59:52;18.90;99.90
30534;DHT22;17318;52.390;9.754;2022-07-22T05:02:18;18.90;99.90
30534;DHT22;17318;52.390;9.754;2022-07-22T05:04:44;18.80;99.90
30534;DHT22;17318;52.390;9.754;2022-07-22T05:07:10;18.80;99.90
30534;DHT22;17318;52.390;9.754;2022-07-22T05:09:36;18.90;99.90
30534;DHT22;17318;52.390;9.754;2022-07-22T05:12:02;19.00;99.90
30534;DHT22;17318;52.390;9.754;2022-07-22T05:14:28;18.90;99.90
30534;DHT22;17318;52.390;9.754;2022-07-22T05:16:54;19.00;99.90
30534;DHT22;17318;52.390;9.754;2022-07-22T05:19:19;18.90;99.90
30534;DHT22;17318;52.390;9.754;2022-07-22T05:21:45;19.00;99.90
30534;DHT22;17318;52.390;9.754;2022-07-22T05:24:12;19.00;99.90
30534;DHT22;17318;52.390;9.754;2022-07-22T05:26:38;18.80;99.90
30534;DHT22;17318;52.390;9.754;2022-07-22T05:29:04;19.00;99.90
30534;DHT22;17318;52.390;9.754;2022-07-22T05:31:30;19.00;99.90
30534;DHT22;17318;52.390;9.754;2022-07-22T05:33:56;19.00;99.90
30534;DHT22;17318;52.390;9.754;2022-07-22T05:36:22;19.10;99.90
30534;DHT22;17318;52.390;9.754;2022-07-22T05:38:47;19.10;99.90
30534;DHT22;17318;52.390;9.754;2022-07-22T05:41:13;19.00;99.90
30534;DHT22;17318;52.390;9.754;2022-07-22T05:43:39;19.00;99.90
30534;DHT22;17318;52.390;9.754;2022-07-22T05:46:05;19.00;99.90
30534;DHT22;17318;52.390;9.754;2022-07-22T05:48:32;19.20;99.90
30534;DHT22;17318;52.390;9.754;2022-07-22T05:50:58;19.30;99.90
30534;DHT22;17318;52.390;9.754;2022-07-22T05:53:24;19.40;99.90
30534;DHT22;17318;52.390;9.754;2022-07-22T05:55:50;19.30;99.90
30534;DHT22;17318;52.390;9.754;2022-07-22T05:58:16;19.40;99.90
30534;DHT22;17318;52.390;9.754;2022-07-22T06:00:41;19.40;99.90
30534;DHT22;17318;52.390;9.754;2022-07-22T06:03:07;19.10;99.90
30534;DHT22;17318;52.390;9.754;2022-07-22T06:05:33;19.20;99.90
30534;DHT22;17318;52.390;9.754;2022-07-22T06:08:01;19.20;99.90
30534;DHT22;17318;52.390;9.754;2022-07-22T06:10:27;19.20;99.90
30534;DHT22;17318;52.390;9.754;2022-07-22T06:12:53;19.20;99.90
30534;DHT22;17318;52.390;9.754;2022-07-22T06:15:18;19.20;99.90
30534;DHT22;17318;52.390;9.754;2022-07-22T06:17:44;19.20;99.90
30534;DHT22;17318;52.390;9.754;2022-07-22T06:20:10;19.20;99.90
30534;DHT22;17318;52.390;9.754;2022-07-22T06:22:35;19.30;99.90
30534;DHT22;17318;52.390;9.754;2022-07-22T06:25:01;19.30;99.90
30534;DHT22;17318;52.390;9.754;2022-07-22T06:27:27;19.30;99.90
30534;DHT22;17318;52.390;9.754;2022-07-22T06:29:52;19.30;99.90
30534;DHT22;17318;52.390;9.754;2022-07-22T06:32:18;19.20;99.90
30534;DHT22;17318;52.390;9.754;2022-07-22T06:34:44;19.10;99.90
30534;DHT22;17318;52.390;9.754;2022-07-22T06:37:09;19.20;99.90
30534;DHT22;17318;52.390;9.754;2022-07-22T06:39:35;19.20;99.90
30534;DHT22;17318;52.390;9.754;2022-07-22T06:42:01;19.40;99.90
30534;DHT22;17318;52.390;9.754;2022-07-22T06:44:26;19.30;99.90
30534;DHT22;17318;52.390;9.754;2022-07-22T06:46:52;19.20;99.90
30534;DHT22;17318;52.390;9.754;2022-07-22T06:49:18;19.10;99.90
30534;DHT22;17318;52.390;9.754;2022-07-22T06:51:44;19.10;99.90
30534;DHT22;17318;52.390;9.754;2022-07-22T06:54:09;19.00;99.90
30534;DHT22;17318;52.390;9.754;2022-07-22T06:56:35;18.90;99.90
30534;DHT22;17318;52.390;9.754;2022-07-22T06:59:01;19.00;99.90
30534;DHT22;17318;52.390;9.754;2022-07-22T07:01:27;19.10;99.90
30534;DHT22;17318;52.390;9.754;2022-07-22T07:03:53;19.20;99.90
30534;DHT22;17318;52.390;9.754;2022-07-22T07:06:18;19.20;99.90
30534;DHT22;17318;52.390;9.754;2022-07-22T07:08:44;19.30;99.80
30534;DHT22;17318;52.390;9.754;2022-07-22T07:11:10;19.40;99.70
30534;DHT22;17318;52.390;9.754;2022-07-22T07:13:35;19.30;99.70
30534;DHT22;17318;52.390;9.754;2022-07-22T07:16:01;19.40;99.60
30534;DHT22;17318;52.390;9.754;2022-07-22T07:18:27;19.40;99.60
30534;DHT22;17318;52.390;9.754;2022-07-22T07:20:53;19.50;99.30
30534;DHT22;17318;52.390;9.754;2022-07-22T07:23:18;19.50;99.00
30534;DHT22;17318;52.390;9.754;2022-07-22T07:25:44;19.40;98.90
30534;DHT22;17318;52.390;9.754;2022-07-22T07:28:10;19.50;99.00
30534;DHT22;17318;52.390;9.754;2022-07-22T07:30:36;19.60;99.00
30534;DHT22;17318;52.390;9.754;2022-07-22T07:33:01;19.60;99.00
30534;DHT22;17318;52.390;9.754;2022-07-22T07:35:28;19.40;99.00
30534;DHT22;17318;52.390;9.754;2022-07-22T07:37:54;19.40;99.30
30534;DHT22;17318;52.390;9.754;2022-07-22T07:40:20;19.40;99.30
30534;DHT22;17318;52.390;9.754;2022-07-22T07:42:46;19.40;99.30
30534;DHT22;17318;52.390;9.754;2022-07-22T07:45:12;19.40;99.50
30534;DHT22;17318;52.390;9.754;2022-07-22T07:47:38;19.30;99.60
30534;DHT22;17318;52.390;9.754;2022-07-22T07:50:05;19.40;99.40
30534;DHT22;17318;52.390;9.754;2022-07-22T07:52:41;19.50;99.40
30534;DHT22;17318;52.390;9.754;2022-07-22T07:55:08;19.60;99.20
30534;DHT22;17318;52.390;9.754;2022-07-22T07:57:34;19.70;98.90
30534;DHT22;17318;52.390;9.754;2022-07-22T08:00:00;20.00;98.70
30534;DHT22;17318;52.390;9.754;2022-07-22T08:02:26;20.10;98.50
30534;DHT22;17318;52.390;9.754;2022-07-22T08:04:52;20.20;98.20
30534;DHT22;17318;52.390;9.754;2022-07-22T08:07:18;20.40;97.80
30534;DHT22;17318;52.390;9.754;2022-07-22T08:09:43;20.50;97.60
30534;DHT22;17318;52.390;9.754;2022-07-22T08:12:09;20.60;97.50
30534;DHT22;17318;52.390;9.754;2022-07-22T08:14:34;20.70;97.30
30534;DHT22;17318;52.390;9.754;2022-07-22T08:17:01;20.90;97.10
30534;DHT22;17318;52.390;9.754;2022-07-22T08:19:26;20.50;96.70
30534;DHT22;17318;52.390;9.754;2022-07-22T08:21:53;20.70;96.90
30534;DHT22;17318;52.390;9.754;2022-07-22T08:24:20;20.60;96.70
30534;DHT22;17318;52.390;9.754;2022-07-22T08:26:46;20.60;96.50
30534;DHT22;17318;52.390;9.754;2022-07-22T08:29:11;20.50;96.90
30534;DHT22;17318;52.390;9.754;2022-07-22T08:31:37;20.60;96.60
30534;DHT22;17318;52.390;9.754;2022-07-22T08:34:04;20.60;96.10
30534;DHT22;17318;52.390;9.754;2022-07-22T08:36:30;20.40;96.40
30534;DHT22;17318;52.390;9.754;2022-07-22T08:38:56;20.50;96.60
30534;DHT22;17318;52.390;9.754;2022-07-22T08:41:23;20.50;96.50
30534;DHT22;17318;52.390;9.754;2022-07-22T08:43:49;20.50;96.50
30534;DHT22;17318;52.390;9.754;2022-07-22T08:46:15;20.40;96.50
30534;DHT22;17318;52.390;9.754;2022-07-22T08:48:41;20.50;96.30
30534;DHT22;17318;52.390;9.754;2022-07-22T08:51:08;20.20;96.90
30534;DHT22;17318;52.390;9.754;2022-07-22T08:53:34;20.00;96.80
30534;DHT22;17318;52.390;9.754;2022-07-22T08:56:00;19.90;97.10
30534;DHT22;17318;52.390;9.754;2022-07-22T08:58:26;19.90;97.00
30534;DHT22;17318;52.390;9.754;2022-07-22T09:01:13;20.00;96.90
30534;DHT22;17318;52.390;9.754;2022-07-22T09:03:46;20.10;97.00
30534;DHT22;17318;52.390;9.754;2022-07-22T09:06:12;20.20;96.80
30534;DHT22;17318;52.390;9.754;2022-07-22T09:09:03;20.30;96.70
30534;DHT22;17318;52.390;9.754;2022-07-22T09:11:30;20.40;96.50
30534;DHT22;17318;52.390;9.754;2022-07-22T09:13:57;20.50;96.20
30534;DHT22;17318;52.390;9.754;2022-07-22T09:19:04;20.60;96.30
30534;DHT22;17318;52.390;9.754;2022-07-22T09:21:30;20.50;96.20
30534;DHT22;17318;52.390;9.754;2022-07-22T09:23:56;20.50;96.50
30534;DHT22;17318;52.390;9.754;2022-07-22T09:26:39;20.60;96.30
30534;DHT22;17318;52.390;9.754;2022-07-22T09:29:06;20.60;96.40
30534;DHT22;17318;52.390;9.754;2022-07-22T09:31:36;20.70;96.50
30534;DHT22;17318;52.390;9.754;2022-07-22T09:34:03;20.70;96.10
30534;DHT22;17318;52.390;9.754;2022-07-22T09:36:29;20.60;96.10
30534;DHT22;17318;52.390;9.754;2022-07-22T09:38:55;20.60;96.20
30534;DHT22;17318;52.390;9.754;2022-07-22T09:41:21;20.60;96.20
30534;DHT22;17318;52.390;9.754;2022-07-22T09:43:48;20.80;96.10
30534;DHT22;17318;52.390;9.754;2022-07-22T09:46:15;20.50;96.20
30534;DHT22;17318;52.390;9.754;2022-07-22T09:48:41;20.80;96.50
30534;DHT22;17318;52.390;9.754;2022-07-22T09:51:08;20.80;96.30
30534;DHT22;17318;52.390;9.754;2022-07-22T09:53:34;21.00;96.40
30534;DHT22;17318;52.390;9.754;2022-07-22T09:56:02;21.10;96.40
30534;DHT22;17318;52.390;9.754;2022-07-22T09:58:32;21.30;96.30
30534;DHT22;17318;52.390;9.754;2022-07-22T10:01:00;21.20;96.20
30534;DHT22;17318;52.390;9.754;2022-07-22T10:03:30;21.20;96.00
30534;DHT22;17318;52.390;9.754;2022-07-22T10:05:57;21.00;96.20
30534;DHT22;17318;52.390;9.754;2022-07-22T10:08:25;21.10;96.30
30534;DHT22;17318;52.390;9.754;2022-07-22T10:10:53;21.10;96.20
30534;DHT22;17318;52.390;9.754;2022-07-22T10:13:19;20.90;96.40
30534;DHT22;17318;52.390;9.754;2022-07-22T10:15:45;20.80;96.30
30534;DHT22;17318;52.390;9.754;2022-07-22T10:18:16;20.90;96.10
30534;DHT22;17318;52.390;9.754;2022-07-22T10:20:43;21.00;96.60
30534;DHT22;17318;52.390;9.754;2022-07-22T10:23:10;20.80;96.40
30534;DHT22;17318;52.390;9.754;2022-07-22T10:25:57;21.00;96.00
30534;DHT22;17318;52.390;9.754;2022-07-22T10:33:40;21.00;95.40
30534;DHT22;17318;52.390;9.754;2022-07-22T10:36:06;20.80;95.40
30534;DHT22;17318;52.390;9.754;2022-07-22T10:38:34;20.90;95.10
30534;DHT22;17318;52.390;9.754;2022-07-22T10:41:02;20.60;95.30
30534;DHT22;17318;52.390;9.754;2022-07-22T10:46:09;21.00;95.30
30534;DHT22;17318;52.390;9.754;2022-07-22T10:53:41;21.10;95.00
30534;DHT22;17318;52.390;9.754;2022-07-22T11:01:09;20.80;95.30
30534;DHT22;17318;52.390;9.754;2022-07-22T11:03:37;20.90;95.40
30534;DHT22;17318;52.390;9.754;2022-07-22T11:06:27;20.90;95.30
30534;DHT22;17318;52.390;9.754;2022-07-22T11:08:59;20.90;95.10
30534;DHT22;17318;52.390;9.754;2022-07-22T11:13:58;20.80;95.00
30534;DHT22;17318;52.390;9.754;2022-07-22T11:16:25;20.70;95.00
30534;DHT22;17318;52.390;9.754;2022-07-22T11:18:54;20.70;95.00
30534;DHT22;17318;52.390;9.754;2022-07-22T11:21:22;20.70;94.80
30534;DHT22;17318;52.390;9.754;2022-07-22T11:23:50;20.80;95.00
30534;DHT22;17318;52.390;9.754;2022-07-22T11:26:18;20.80;94.80
30534;DHT22;17318;52.390;9.754;2022-07-22T11:28:45;20.80;94.60
30534;DHT22;17318;52.390;9.754;2022-07-22T11:31:15;20.80;94.70
30534;DHT22;17318;52.390;9.754;2022-07-22T11:33:41;21.00;94.80
30534;DHT22;17318;52.390;9.754;2022-07-22T11:36:08;21.10;94.50
30534;DHT22;17318;52.390;9.754;2022-07-22T11:38:46;21.00;94.30
30534;DHT22;17318;52.390;9.754;2022-07-22T11:41:15;21.10;94.30
30534;DHT22;17318;52.390;9.754;2022-07-22T11:43:46;21.10;94.30
30534;DHT22;17318;52.390;9.754;2022-07-22T11:46:14;21.00;94.20
30534;DHT22;17318;52.390;9.754;2022-07-22T11:48:41;21.10;94.20
30534;DHT22;17318;52.390;9.754;2022-07-22T11:51:09;21.20;94.20
30534;DHT22;17318;52.390;9.754;2022-07-22T11:53:36;21.30;94.10
30534;DHT22;17318;52.390;9.754;2022-07-22T11:56:07;21.40;94.10
30534;DHT22;17318;52.390;9.754;2022-07-22T11:58:37;21.30;93.90
30534;DHT22;17318;52.390;9.754;2022-07-22T12:01:08;21.10;93.80
30534;DHT22;17318;52.390;9.754;2022-07-22T12:03:38;21.00;94.10
30534;DHT22;17318;52.390;9.754;2022-07-22T12:06:09;21.00;93.90
30534;DHT22;17318;52.390;9.754;2022-07-22T12:08:40;21.10;93.90
30534;DHT22;17318;52.390;9.754;2022-07-22T12:11:07;21.30;94.10
30534;DHT22;17318;52.390;9.754;2022-07-22T12:13:34;21.20;93.80
30534;DHT22;17318;52.390;9.754;2022-07-22T12:15:59;21.20;93.70
30534;DHT22;17318;52.390;9.754;2022-07-22T12:18:27;21.20;93.80
30534;DHT22;17318;52.390;9.754;2022-07-22T12:20:55;21.20;93.70
30534;DHT22;17318;52.390;9.754;2022-07-22T12:23:24;21.10;93.60
30534;DHT22;17318;52.390;9.754;2022-07-22T12:25:52;21.20;93.50
30534;DHT22;17318;52.390;9.754;2022-07-22T12:28:18;21.20;93.50
30534;DHT22;17318;52.390;9.754;2022-07-22T12:30:43;21.20;93.60
30534;DHT22;17318;52.390;9.754;2022-07-22T12:33:14;21.30;93.60
30534;DHT22;17318;52.390;9.754;2022-07-22T12:35:41;21.30;93.50
30534;DHT22;17318;52.390;9.754;2022-07-22T12:38:07;21.20;93.60
30534;DHT22;17318;52.390;9.754;2022-07-22T12:40:34;21.30;93.70
30534;DHT22;17318;52.390;9.754;2022-07-22T12:43:03;21.40;93.50
30534;DHT22;17318;52.390;9.754;2022-07-22T12:45:30;21.40;93.50
30534;DHT22;17318;52.390;9.754;2022-07-22T12:53:16;21.50;93.30
30534;DHT22;17318;52.390;9.754;2022-07-22T12:55:50;21.40;93.30
30534;DHT22;17318;52.390;9.754;2022-07-22T12:58:17;21.10;93.50
30534;DHT22;17318;52.390;9.754;2022-07-22T13:00:48;21.00;93.70
30534;DHT22;17318;52.390;9.754;2022-07-22T13:03:14;21.10;94.00
30534;DHT22;17318;52.390;9.754;2022-07-22T13:05:41;21.30;93.80
30534;DHT22;17318;52.390;9.754;2022-07-22T13:08:06;21.30;93.70
30534;DHT22;17318;52.390;9.754;2022-07-22T13:10:33;21.30;93.40
30534;DHT22;17318;52.390;9.754;2022-07-22T13:12:59;21.40;93.50
30534;DHT22;17318;52.390;9.754;2022-07-22T13:15:24;21.50;93.60
30534;DHT22;17318;52.390;9.754;2022-07-22T13:17:51;21.50;93.50
30534;DHT22;17318;52.390;9.754;2022-07-22T13:20:17;21.40;93.40
30534;DHT22;17318;52.390;9.754;2022-07-22T13:22:47;21.40;93.50
30534;DHT22;17318;52.390;9.754;2022-07-22T13:25:13;21.30;93.40
30534;DHT22;17318;52.390;9.754;2022-07-22T13:27:40;21.30;93.40
30534;DHT22;17318;52.390;9.754;2022-07-22T13:30:06;21.30;93.50
30534;DHT22;17318;52.390;9.754;2022-07-22T13:32:32;21.30;93.50
30534;DHT22;17318;52.390;9.754;2022-07-22T13:34:58;21.10;93.60
30534;DHT22;17318;52.390;9.754;2022-07-22T13:37:24;21.40;93.70
30534;DHT22;17318;52.390;9.754;2022-07-22T13:39:49;21.50;93.50
30534;DHT22;17318;52.390;9.754;2022-07-22T13:42:16;21.60;93.20
30534;DHT22;17318;52.390;9.754;2022-07-22T13:44:44;21.60;93.30
30534;DHT22;17318;52.390;9.754;2022-07-22T13:47:10;21.70;93.00
30534;DHT22;17318;52.390;9.754;2022-07-22T13:49:36;21.40;93.20
30534;DHT22;17318;52.390;9.754;2022-07-22T13:52:03;21.40;93.80
30534;DHT22;17318;52.390;9.754;2022-07-22T13:54:30;21.40;93.40
30534;DHT22;17318;52.390;9.754;2022-07-22T13:56:56;21.50;93.30
30534;DHT22;17318;52.390;9.754;2022-07-22T13:59:23;21.40;93.30
30534;DHT22;17318;52.390;9.754;2022-07-22T14:01:50;21.30;93.60
30534;DHT22;17318;52.390;9.754;2022-07-22T14:04:16;21.40;93.50
30534;DHT22;17318;52.390;9.754;2022-07-22T14:06:41;21.50;93.40
30534;DHT22;17318;52.390;9.754;2022-07-22T14:09:07;21.40;93.20
30534;DHT22;17318;52.390;9.754;2022-07-22T14:11:33;21.50;93.30
30534;DHT22;17318;52.390;9.754;2022-07-22T14:13:58;21.40;93.30
30534;DHT22;17318;52.390;9.754;2022-07-22T14:16:24;21.40;93.30
30534;DHT22;17318;52.390;9.754;2022-07-22T14:19:21;21.50;93.30
30534;DHT22;17318;52.390;9.754;2022-07-22T14:21:48;21.60;93.20
30534;DHT22;17318;52.390;9.754;2022-07-22T14:24:14;21.60;93.10
30534;DHT22;17318;52.390;9.754;2022-07-22T14:26:40;21.60;93.30
30534;DHT22;17318;52.390;9.754;2022-07-22T14:29:07;21.50;93.10
30534;DHT22;17318;52.390;9.754;2022-07-22T14:31:33;21.40;93.30
30534;DHT22;17318;52.390;9.754;2022-07-22T14:33:59;21.50;93.20
30534;DHT22;17318;52.390;9.754;2022-07-22T14:36:25;21.40;93.40
30534;DHT22;17318;52.390;9.754;2022-07-22T14:38:51;21.40;93.30
30534;DHT22;17318;52.390;9.754;2022-07-22T14:41:19;21.40;93.30
30534;DHT22;17318;52.390;9.754;2022-07-22T14:43:45;21.50;93.30
30534;DHT22;17318;52.390;9.754;2022-07-22T14:46:11;21.40;93.40
30534;DHT22;17318;52.390;9.754;2022-07-22T14:48:38;21.40;93.40
30534;DHT22;17318;52.390;9.754;2022-07-22T14:51:07;21.40;93.50
30534;DHT22;17318;52.390;9.754;2022-07-22T14:53:33;21.40;93.40
30534;DHT22;17318;52.390;9.754;2022-07-22T14:55:59;21.40;93.30
30534;DHT22;17318;52.390;9.754;2022-07-22T14:58:25;21.30;93.50
30534;DHT22;17318;52.390;9.754;2022-07-22T15:00:50;21.20;93.50
30534;DHT22;17318;52.390;9.754;2022-07-22T15:03:16;21.30;93.60
30534;DHT22;17318;52.390;9.754;2022-07-22T15:05:42;21.30;93.50
30534;DHT22;17318;52.390;9.754;2022-07-22T15:08:08;21.30;93.40
30534;DHT22;17318;52.390;9.754;2022-07-22T15:10:34;21.30;93.40
30534;DHT22;17318;52.390;9.754;2022-07-22T15:13:00;21.50;93.50
30534;DHT22;17318;52.390;9.754;2022-07-22T15:15:25;21.50;93.20
30534;DHT22;17318;52.390;9.754;2022-07-22T15:17:51;21.50;93.20
30534;DHT22;17318;52.390;9.754;2022-07-22T15:20:17;21.40;93.10
30534;DHT22;17318;52.390;9.754;2022-07-22T15:22:43;21.30;93.10
30534;DHT22;17318;52.390;9.754;2022-07-22T15:25:09;21.30;93.20
30534;DHT22;17318;52.390;9.754;2022-07-22T15:27:35;21.30;93.30
30534;DHT22;17318;52.390;9.754;2022-07-22T15:30:07;21.20;93.40
30534;DHT22;17318;52.390;9.754;2022-07-22T15:32:33;21.10;93.30
30534;DHT22;17318;52.390;9.754;2022-07-22T15:34:59;21.10;93.50
30534;DHT22;17318;52.390;9.754;2022-07-22T15:37:27;21.10;93.60
30534;DHT22;17318;52.390;9.754;2022-07-22T15:39:54;21.10;93.50
30534;DHT22;17318;52.390;9.754;2022-07-22T15:42:19;21.30;93.50
30534;DHT22;17318;52.390;9.754;2022-07-22T15:44:45;21.20;93.50
30534;DHT22;17318;52.390;9.754;2022-07-22T15:47:11;21.30;93.60
30534;DHT22;17318;52.390;9.754;2022-07-22T15:49:37;21.30;93.40
30534;DHT22;17318;52.390;9.754;2022-07-22T15:52:03;21.30;93.40
30534;DHT22;17318;52.390;9.754;2022-07-22T15:54:28;21.20;93.30